Time;durP1;ratioP1;P1;durP2;ratioP2;P2;SDS_P1;SDS_P2;PMS_P1;PMS_P2;Temp;Humidity;BMP_temperature;BMP_pressure;BME280_temperature;BME280_humidity;BME280_pressure;Samples;Min_cycle;Max_cycle;Signal;HPM_P1;HPM_P2
2022/12/15 00:40:03;;;;;;;129.10;55.80;;;;;;;-4.27;86.12;99028.75;102995;1275;22534;-58
2022/12/15 00:42:34;;;;;;;137.00;60.70;;;;;;;-4.30;86.24;99028.56;103059;1306;24282;-57
2022/12/15 00:45:06;;;;;;;139.20;60.10;;;;;;;-4.31;86.56;99036.60;103245;1278;25709;-57
2022/12/15 00:47:38;;;;;;;148.10;63.90;;;;;;;-4.31;86.64;99039.70;103166;1305;24832;-56
2022/12/15 01:21:11;;;;;;;148.60;61.40;;;;;;;-4.56;86.71;99059.16;103070;1306;22565;-57
2022/12/15 01:23:43;;;;;;;145.60;61.20;;;;;;;-4.59;86.88;99061.21;103253;1306;22521;-58
2022/12/15 01:26:14;;;;;;;143.60;59.00;;;;;;;-4.59;87.04;99067.13;103163;1305;25548;-56
2022/12/15 01:28:46;;;;;;;135.70;58.20;;;;;;;-4.61;87.09;99072.05;103146;1274;23124;-58
2022/12/15 01:31:17;;;;;;;136.30;60.20;;;;;;;-4.62;87.22;99075.88;103157;1274;24986;-55
2022/12/15 01:33:53;;;;;;;104.90;42.00;;;;;;;-4.64;87.58;99075.51;103208;1282;26603;-57
2022/12/15 01:36:24;;;;;;;113.60;47.20;;;;;;;-4.64;87.94;99082.05;103051;1298;22509;-58
2022/12/15 01:38:55;;;;;;;121.60;51.10;;;;;;;-4.65;88.21;99083.91;103217;1306;22762;-57
2022/12/15 01:41:27;;;;;;;128.60;55.20;;;;;;;-4.63;88.27;99082.80;103265;1281;25558;-58
2022/12/15 01:44:17;;;;;;;119.70;51.30;;;;;;;-4.60;88.44;99084.27;103123;1278;25597;-57
2022/12/15 01:46:50;;;;;;;125.30;51.80;;;;;;;-4.58;88.48;99087.42;103078;1282;25498;-57
2022/12/15 01:49:25;;;;;;;122.60;53.30;;;;;;;-4.56;88.52;99090.14;103036;1282;22523;-57
2022/12/15 01:52:00;;;;;;;126.40;51.90;;;;;;;-4.56;88.74;99099.55;103044;1277;26677;-57
2022/12/15 01:54:35;;;;;;;117.40;49.90;;;;;;;-4.56;88.80;99106.39;103008;1290;22532;-56
2022/12/15 01:57:15;;;;;;;134.50;54.20;;;;;;;-4.56;88.86;99106.00;103121;1304;25684;-57
2022/12/15 01:59:50;;;;;;;123.50;52.50;;;;;;;-4.54;88.94;99111.66;103085;1306;25501;-57
2022/12/15 02:02:26;;;;;;;135.60;53.30;;;;;;;-4.53;88.91;99115.23;103059;1282;22485;-57
2022/12/15 02:05:00;;;;;;;124.80;52.20;;;;;;;-4.51;89.14;99115.68;103113;1282;25586;-57
2022/12/15 02:07:31;;;;;;;136.90;56.70;;;;;;;-4.50;89.19;99113.33;102910;1306;22597;-57
2022/12/15 02:10:09;;;;;;;124.80;51.80;;;;;;;-4.48;89.25;99112.92;102992;1275;22523;-57
2022/12/15 02:12:47;;;;;;;138.00;55.70;;;;;;;-4.47;89.30;99120.61;103256;1297;24366;-55
2022/12/15 02:15:27;;;;;;;135.60;57.80;;;;;;;-4.45;89.24;99123.63;103068;1294;25469;-54
2022/12/15 02:18:06;;;;;;;134.80;58.10;;;;;;;-4.43;89.31;99129.44;103135;1300;22470;-55
2022/12/15 02:20:53;;;;;;;141.70;56.20;;;;;;;-4.40;89.39;99131.52;103076;1282;22546;-55
2022/12/15 02:24:03;;;;;;;137.50;60.90;;;;;;;-4.39;89.32;99133.36;103014;1278;24441;-58
2022/12/15 02:26:54;;;;;;;143.90;62.20;;;;;;;-4.36;89.33;99127.98;102837;1294;22473;-56
2022/12/15 02:29:52;;;;;;;135.40;57.50;;;;;;;-4.34;89.29;99128.64;102803;1282;24737;-56
2022/12/15 02:32:27;;;;;;;137.80;57.50;;;;;;;-4.32;89.30;99133.13;102708;1297;22581;-57
2022/12/15 02:35:05;;;;;;;141.70;61.40;;;;;;;-4.30;89.28;99135.38;102651;1287;22835;-58
2022/12/15 02:37:40;;;;;;;145.70;61.20;;;;;;;-4.28;89.33;99145.31;102727;1288;22899;-57
2022/12/15 02:40:12;;;;;;;137.10;58.80;;;;;;;-4.27;89.36;99150.59;102682;1280;25481;-57
2022/12/15 02:42:47;;;;;;;139.30;57.50;;;;;;;-4.26;89.33;99154.16;102673;1311;24321;-57
2022/12/15 02:45:23;;;;;;;130.80;56.60;;;;;;;-4.24;89.34;99158.42;102604;1282;22538;-57
2022/12/15 02:48:05;;;;;;;130.10;56.00;;;;;;;-4.23;89.32;99163.64;102718;1312;25528;-55
2022/12/15 02:50:48;;;;;;;133.50;57.00;;;;;;;-4.22;89.34;99170.08;102655;1284;25542;-57
2022/12/15 02:53:40;;;;;;;132.50;58.30;;;;;;;-4.20;89.35;99170.14;102644;1280;22604;-58
2022/12/15 02:56:24;;;;;;;125.70;55.10;;;;;;;-4.17;89.29;99170.11;102776;1288;22590;-56
2022/12/15 02:59:09;;;;;;;129.10;54.80;;;;;;;-4.14;89.30;99178.01;102780;1288;22544;-56
2022/12/15 03:01:49;;;;;;;135.20;55.20;;;;;;;-4.11;89.33;99184.52;102636;1310;25560;-57
2022/12/15 03:04:21;;;;;;;138.80;59.30;;;;;;;-4.10;89.27;99186.23;102770;1280;26595;-57
2022/12/15 03:06:58;;;;;;;126.40;53.90;;;;;;;-4.06;89.32;99193.81;103074;1305;25441;-57
2022/12/15 03:09:30;;;;;;;133.20;57.10;;;;;;;-4.03;89.31;99203.74;103075;1282;25631;-54
2022/12/15 03:12:01;;;;;;;126.30;54.40;;;;;;;-4.01;89.26;99206.53;103176;1298;22698;-58
2022/12/15 03:14:32;;;;;;;126.50;54.20;;;;;;;-3.99;89.28;99210.23;103168;1291;22532;-58
2022/12/15 03:17:06;;;;;;;128.30;53.80;;;;;;;-3.99;89.18;99206.50;103055;1305;25473;-56
2022/12/15 03:19:37;;;;;;;125.60;54.50;;;;;;;-4.00;89.16;99210.27;103030;1282;22734;-56
2022/12/15 03:22:09;;;;;;;121.30;48.90;;;;;;;-4.00;89.24;99208.40;103017;1306;25608;-55
2022/12/15 03:24:40;;;;;;;128.80;52.70;;;;;;;-4.01;89.19;99205.52;103144;1287;24695;-57
2022/12/15 03:27:12;;;;;;;126.00;52.30;;;;;;;-4.01;89.05;99209.98;103095;1282;24290;-57
2022/12/15 03:29:43;;;;;;;112.80;49.10;;;;;;;-4.01;89.15;99214.55;103077;1288;22560;-57
2022/12/15 03:32:14;;;;;;;117.90;49.40;;;;;;;-4.01;89.24;99218.44;102973;1274;22645;-58
2022/12/15 03:34:46;;;;;;;121.00;48.30;;;;;;;-4.03;89.14;99219.55;103225;1282;24486;-56
2022/12/15 03:37:18;;;;;;;106.90;45.30;;;;;;;-4.03;89.19;99215.98;103069;1278;23305;-57
2022/12/15 03:39:51;;;;;;;105.80;47.30;;;;;;;-4.04;89.17;99212.88;103098;1282;22564;-57
2022/12/15 03:42:47;;;;;;;103.10;45.00;;;;;;;-4.04;89.18;99212.48;103119;1274;22480;-55
2022/12/15 03:45:14;;;;;;;99.70;44.30;;;;;;;-4.04;89.18;99214.98;103050;1281;22900;-59
2022/12/15 03:47:46;;;;;;;101.70;42.10;;;;;;;-4.04;89.12;99219.58;103065;1306;22563;-57
2022/12/15 03:50:20;;;;;;;101.10;45.20;;;;;;;-4.04;89.17;99220.34;103037;1306;24993;-57
2022/12/15 03:52:54;;;;;;;104.50;43.90;;;;;;;-4.02;89.14;99230.92;103122;1305;22793;-59
2022/12/15 03:55:27;;;;;;;110.90;44.40;;;;;;;-4.00;89.16;99238.06;103102;1306;22511;-58
2022/12/15 03:57:59;;;;;;;99.60;43.50;;;;;;;-3.97;89.20;99244.56;103612;1282;22947;-57
2022/12/15 04:00:31;;;;;;;104.60;45.90;;;;;;;-3.95;89.06;99248.84;102930;1299;22516;-55
2022/12/15 04:03:02;;;;;;;104.60;44.30;;;;;;;-3.95;89.21;99246.89;102956;1297;22511;-58
2022/12/15 04:05:35;;;;;;;101.60;41.70;;;;;;;-3.94;89.20;99240.55;103100;1288;22650;-58
2022/12/15 04:08:06;;;;;;;101.60;43.50;;;;;;;-3.91;89.22;99244.73;104810;1275;22615;-56
2022/12/15 04:10:38;;;;;;;97.30;42.20;;;;;;;-3.88;89.20;99244.64;103216;1289;25544;-60
2022/12/15 04:13:11;;;;;;;101.20;42.30;;;;;;;-3.87;89.15;99247.04;103176;1275;22770;-56
2022/12/15 04:15:42;;;;;;;103.40;43.60;;;;;;;-3.87;89.24;99250.92;103100;1305;24301;-57
2022/12/15 04:18:14;;;;;;;96.70;39.40;;;;;;;-3.86;89.18;99253.64;103180;1281;25471;-57
2022/12/15 04:20:45;;;;;;;101.90;44.10;;;;;;;-3.85;89.12;99254.34;103073;1299;22571;-58
2022/12/15 04:23:16;;;;;;;102.90;42.20;;;;;;;-3.85;89.15;99259.09;103217;1282;24357;-57
2022/12/15 05:33:46;;;;;;;98.00;40.00;;;;;;;-3.44;89.25;99347.16;103421;1275;24189;-57
2022/12/15 05:36:17;;;;;;;93.70;41.00;;;;;;;-3.44;89.26;99353.02;103647;1282;22679;-57
2022/12/15 05:38:51;;;;;;;93.00;38.80;;;;;;;-3.42;89.40;99359.30;103571;1306;22656;-56
2022/12/15 05:41:23;;;;;;;84.50;34.90;;;;;;;-3.41;89.41;99358.89;103535;1304;22993;-57
2022/12/15 05:43:55;;;;;;;86.30;37.20;;;;;;;-3.40;89.37;99357.26;103428;1285;23198;-58
2022/12/15 05:46:26;;;;;;;83.70;34.40;;;;;;;-3.38;89.39;99363.63;104245;1306;24251;-59
2022/12/15 05:48:58;;;;;;;79.60;32.80;;;;;;;-3.36;89.29;99373.11;106102;1303;22670;-56
2022/12/15 05:51:29;;;;;;;65.50;29.60;;;;;;;-3.32;89.39;99378.06;103481;1297;24335;-57
2022/12/15 05:54:02;;;;;;;68.40;26.80;;;;;;;-3.29;89.31;99380.45;103552;1282;22578;-58
2022/12/15 05:56:34;;;;;;;70.30;28.30;;;;;;;-3.26;89.43;99381.81;103493;1302;22481;-56
2022/12/15 05:59:05;;;;;;;67.50;27.80;;;;;;;-3.24;89.45;99384.76;103427;1278;22498;-56
2022/12/15 06:01:37;;;;;;;66.70;26.00;;;;;;;-3.22;89.50;99389.65;103385;1278;22698;-56
2022/12/15 06:04:09;;;;;;;65.00;27.00;;;;;;;-3.20;89.60;99388.14;103460;1282;22443;-57
2022/12/15 06:06:41;;;;;;;64.90;25.50;;;;;;;-3.17;89.61;99392.25;103446;1282;22646;-58
2022/12/15 06:09:13;;;;;;;64.10;25.30;;;;;;;-3.14;89.66;99392.84;103530;1271;23204;-57
2022/12/15 06:11:45;;;;;;;69.60;26.50;;;;;;;-3.12;89.48;99397.27;103503;1284;22733;-55
2022/12/15 06:14:17;;;;;;;62.00;25.40;;;;;;;-3.09;89.39;99406.89;103408;1305;22529;-56
2022/12/15 06:16:49;;;;;;;61.20;26.90;;;;;;;-3.08;89.45;99416.09;104424;1283;25667;-54
2022/12/15 06:19:21;;;;;;;65.90;26.40;;;;;;;-3.05;89.49;99421.51;103491;1298;22649;-55
2022/12/15 06:21:52;;;;;;;65.70;27.20;;;;;;;-3.02;89.58;99427.17;103438;1282;24283;-55
2022/12/15 06:24:24;;;;;;;67.50;26.60;;;;;;;-2.99;89.66;99434.79;103430;1305;22981;-59
2022/12/15 06:26:56;;;;;;;64.60;28.00;;;;;;;-2.96;89.69;99441.23;103508;1305;25382;-54
2022/12/15 06:29:27;;;;;;;66.70;28.90;;;;;;;-2.95;89.65;99448.48;103403;1304;25668;-57
2022/12/15 06:31:59;;;;;;;71.00;30.20;;;;;;;-2.93;89.58;99457.41;103510;1282;22530;-56
2022/12/15 06:34:30;;;;;;;66.00;30.00;;;;;;;-2.92;89.60;99467.16;103430;1275;26092;-56
2022/12/15 06:37:03;;;;;;;69.20;29.30;;;;;;;-2.91;89.37;99474.02;103397;1279;25888;-55
2022/12/15 06:39:34;;;;;;;62.50;25.70;;;;;;;-2.88;89.60;99474.22;103417;1302;22813;-57
2022/12/15 06:42:07;;;;;;;63.50;24.40;;;;;;;-2.86;89.56;99475.75;103432;1305;22638;-58
2022/12/15 06:44:38;;;;;;;66.50;27.30;;;;;;;-2.84;89.58;99471.29;103351;1282;24068;-56
2022/12/15 06:47:10;;;;;;;57.70;24.10;;;;;;;-2.83;89.44;99469.56;103248;1306;25377;-57
2022/12/15 06:49:41;;;;;;;68.00;26.30;;;;;;;-2.82;89.31;99475.25;103339;1291;25672;-55
2022/12/15 06:52:12;;;;;;;56.60;24.40;;;;;;;-2.79;89.30;99477.47;103154;1294;22529;-55
2022/12/15 06:54:44;;;;;;;60.70;24.80;;;;;;;-2.78;89.13;99484.26;103263;1291;22557;-56
2022/12/15 06:57:15;;;;;;;58.40;24.90;;;;;;;-2.77;89.10;99487.51;103309;1284;22613;-55
2022/12/15 06:59:50;;;;;;;51.60;22.20;;;;;;;-2.75;89.06;99493.52;103369;1279;26407;-56
2022/12/15 07:02:21;;;;;;;53.30;21.90;;;;;;;-2.74;88.81;99497.64;103261;1278;25638;-54
2022/12/15 07:04:53;;;;;;;58.30;22.70;;;;;;;-2.75;88.72;99495.38;103327;1274;22614;-55
2022/12/15 07:07:26;;;;;;;54.50;22.10;;;;;;;-2.74;88.62;99500.13;103183;1275;22616;-58
2022/12/15 07:09:57;;;;;;;47.10;21.90;;;;;;;-2.73;88.55;99499.50;103211;1288;22641;-57
2022/12/15 07:12:28;;;;;;;51.10;20.80;;;;;;;-2.73;88.59;99500.13;103156;1278;24347;-58
2022/12/15 07:15:00;;;;;;;50.60;20.40;;;;;;;-2.72;88.59;99500.65;103295;1306;22542;-56
2022/12/15 07:17:31;;;;;;;53.50;21.80;;;;;;;-2.71;88.52;99507.27;103298;1294;25699;-57
2022/12/15 07:20:03;;;;;;;52.20;19.40;;;;;;;-2.71;88.28;99512.11;103197;1282;22499;-57
2022/12/15 07:22:34;;;;;;;49.30;18.60;;;;;;;-2.70;87.94;99512.87;103305;1305;22712;-55
2022/12/15 07:25:07;;;;;;;53.20;19.30;;;;;;;-2.69;87.68;99519.74;103218;1281;23075;-57
2022/12/15 07:27:40;;;;;;;50.80;19.50;;;;;;;-2.69;87.46;99518.58;103262;1275;22606;-56
2022/12/15 07:30:14;;;;;;;47.30;20.70;;;;;;;-2.68;87.43;99517.86;103359;1306;22676;-58
2022/12/15 07:32:46;;;;;;;45.70;15.90;;;;;;;-2.67;87.37;99526.50;103382;1278;22578;-55
2022/12/15 07:35:17;;;;;;;42.20;18.60;;;;;;;-2.66;87.20;99535.55;103353;1274;25679;-54
2022/12/15 07:37:49;;;;;;;37.50;14.70;;;;;;;-2.64;87.06;99542.94;103217;1304;22859;-56
2022/12/15 07:40:23;;;;;;;38.40;15.50;;;;;;;-2.64;86.69;99548.17;103217;1287;24388;-56
2022/12/15 07:42:56;;;;;;;46.10;18.30;;;;;;;-2.62;86.99;99555.73;103374;1278;22647;-55
2022/12/15 07:45:27;;;;;;;47.50;17.80;;;;;;;-2.60;87.08;99554.15;103311;1306;22608;-56
2022/12/15 07:48:00;;;;;;;40.60;15.20;;;;;;;-2.59;87.11;99555.61;103334;1278;22502;-56
2022/12/15 07:50:32;;;;;;;39.10;15.40;;;;;;;-2.56;86.82;99561.60;103270;1305;22528;-57
2022/12/15 07:53:04;;;;;;;48.50;19.60;;;;;;;-2.55;86.71;99559.31;103265;1305;22674;-55
2022/12/15 07:55:36;;;;;;;51.80;20.20;;;;;;;-2.53;86.73;99558.98;103297;1303;24487;-56
2022/12/15 07:58:07;;;;;;;39.50;15.10;;;;;;;-2.51;86.73;99562.33;103347;1282;24264;-55
2022/12/15 08:00:38;;;;;;;37.20;14.40;;;;;;;-2.51;86.25;99569.35;103346;1305;25703;-57
2022/12/15 08:03:11;;;;;;;41.80;15.90;;;;;;;-2.51;86.12;99573.48;103288;1281;22570;-57
2022/12/15 08:05:43;;;;;;;38.10;15.60;;;;;;;-2.52;85.92;99577.23;103235;1306;24886;-57
2022/12/15 08:08:14;;;;;;;38.50;15.40;;;;;;;-2.51;85.90;99588.02;103593;1282;22627;-55
2022/12/15 08:10:45;;;;;;;44.80;18.80;;;;;;;-2.50;86.01;99588.38;103382;1284;25563;-55
2022/12/15 08:13:17;;;;;;;47.20;18.80;;;;;;;-2.48;86.05;99595.47;103292;1282;24378;-58
2022/12/15 08:15:53;;;;;;;37.80;15.40;;;;;;;-2.47;86.13;99601.39;103286;1306;23351;-57
2022/12/15 08:18:24;;;;;;;43.00;17.40;;;;;;;-2.45;85.93;99600.98;103276;1282;22793;-56
2022/12/15 08:20:56;;;;;;;40.80;17.00;;;;;;;-2.41;85.98;99599.37;103236;1306;24295;-56
2022/12/15 08:23:28;;;;;;;50.30;19.20;;;;;;;-2.38;85.91;99595.98;103102;1307;25457;-57
2022/12/15 08:26:06;;;;;;;40.60;15.00;;;;;;;-2.34;85.77;99594.00;103315;1288;25589;-56
2022/12/15 08:28:39;;;;;;;46.00;18.00;;;;;;;-2.31;85.77;99598.80;103321;1282;25489;-58
2022/12/15 08:31:13;;;;;;;46.50;18.00;;;;;;;-2.28;85.84;99601.56;103231;1306;24384;-57
2022/12/15 08:33:45;;;;;;;39.90;16.60;;;;;;;-2.27;85.46;99595.39;103353;1306;22594;-58
2022/12/15 08:36:19;;;;;;;40.40;14.90;;;;;;;-2.26;85.40;99595.70;103322;1306;22557;-55
2022/12/15 08:38:51;;;;;;;39.90;16.00;;;;;;;-2.27;85.13;99608.50;103306;1278;25611;-57
2022/12/15 08:41:25;;;;;;;44.80;16.50;;;;;;;-2.24;85.36;99613.48;103308;1282;22496;-58
2022/12/15 08:43:58;;;;;;;43.20;16.90;;;;;;;-2.21;85.21;99615.09;103496;1282;26935;-57
2022/12/15 08:46:41;;;;;;;41.30;15.10;;;;;;;-2.19;85.12;99623.05;103315;1278;26847;-57
2022/12/15 08:49:13;;;;;;;42.60;16.80;;;;;;;-2.17;85.04;99624.42;103305;1306;22486;-57
2022/12/15 08:51:44;;;;;;;39.00;17.60;;;;;;;-2.13;85.07;99629.21;103182;1299;22559;-55
2022/12/15 08:54:15;;;;;;;40.80;16.90;;;;;;;-2.12;85.11;99627.40;103431;1282;22511;-56
2022/12/15 08:56:47;;;;;;;42.80;17.30;;;;;;;-2.09;84.75;99629.23;103530;1304;24260;-57
2022/12/15 08:59:19;;;;;;;43.00;17.20;;;;;;;-2.07;84.76;99625.47;103337;1282;25482;-56
2022/12/15 09:01:50;;;;;;;42.60;16.80;;;;;;;-2.05;84.72;99624.81;103286;1282;22610;-58
2022/12/15 09:04:22;;;;;;;38.00;15.90;;;;;;;-2.03;84.70;99627.14;103366;1305;22554;-58
2022/12/15 09:06:54;;;;;;;38.60;14.30;;;;;;;-2.02;84.33;99626.98;103411;1282;24842;-58
2022/12/15 09:09:25;;;;;;;49.50;19.00;;;;;;;-2.01;84.81;99623.13;103426;1278;24269;-57
2022/12/15 09:11:57;;;;;;;46.50;17.50;;;;;;;-1.98;84.83;99633.88;103402;1306;22626;-57
2022/12/15 09:14:28;;;;;;;49.90;18.60;;;;;;;-1.94;84.85;99631.41;103291;1281;22868;-57
2022/12/15 09:16:59;;;;;;;48.70;19.10;;;;;;;-1.89;84.94;99638.45;103456;1282;24720;-57
2022/12/15 09:19:31;;;;;;;48.40;18.10;;;;;;;-1.85;84.93;99641.06;103368;1302;24257;-57
2022/12/15 09:22:19;;;;;;;43.40;19.10;;;;;;;-1.84;84.48;99644.40;103221;1296;22450;-57
2022/12/15 09:24:50;;;;;;;45.60;16.10;;;;;;;-1.82;84.29;99643.91;103358;1282;25525;-57
2022/12/15 09:27:21;;;;;;;45.30;16.80;;;;;;;-1.84;84.19;99646.67;103491;1291;22543;-57
2022/12/15 09:29:53;;;;;;;43.40;15.80;;;;;;;-1.84;84.48;99649.33;103401;1297;22493;-57
2022/12/15 09:32:24;;;;;;;45.70;16.80;;;;;;;-1.82;84.23;99654.06;103418;1275;22834;-59
2022/12/15 09:34:56;;;;;;;39.60;15.60;;;;;;;-1.81;84.19;99658.13;103236;1274;22555;-58
2022/12/15 09:37:27;;;;;;;38.30;13.70;;;;;;;-1.79;84.10;99662.56;103438;1281;22551;-57
2022/12/15 09:39:59;;;;;;;45.90;18.00;;;;;;;-1.78;83.96;99663.03;103313;1281;24382;-57
2022/12/15 09:42:32;;;;;;;40.50;17.10;;;;;;;-1.75;84.04;99666.19;103173;1306;24447;-57
2022/12/15 09:45:14;;;;;;;34.10;12.20;;;;;;;-1.75;83.55;99666.73;103370;1306;25552;-56
2022/12/15 09:47:52;;;;;;;38.40;14.60;;;;;;;-1.76;83.26;99663.55;103334;1306;26821;-56
2022/12/15 09:50:28;;;;;;;38.00;14.90;;;;;;;-1.73;83.70;99664.59;103392;1274;25511;-61
2022/12/15 09:53:00;;;;;;;39.00;16.80;;;;;;;-1.68;83.89;99675.09;103142;1282;22466;-62
2022/12/15 09:55:34;;;;;;;39.50;11.80;;;;;;;-1.63;83.94;99668.23;103266;1282;25435;-55
2022/12/15 09:58:15;;;;;;;41.50;15.20;;;;;;;-1.61;83.65;99670.15;103238;1305;25451;-55
2022/12/15 10:00:53;;;;;;;41.20;15.60;;;;;;;-1.61;83.42;99663.04;103469;1300;22472;-55
2022/12/15 10:03:34;;;;;;;38.90;13.30;;;;;;;-1.65;83.00;99657.46;103353;1284;25270;-57
2022/12/15 10:06:11;;;;;;;38.90;13.80;;;;;;;-1.70;82.74;99658.15;103421;1284;22614;-57
2022/12/15 10:08:47;;;;;;;40.90;17.10;;;;;;;-1.75;82.84;99663.70;103281;1287;23969;-55
2022/12/15 10:11:24;;;;;;;44.50;16.10;;;;;;;-1.80;82.80;99658.81;103358;1291;22549;-58
2022/12/15 10:14:01;;;;;;;40.30;15.90;;;;;;;-1.84;82.70;99654.96;103241;1306;24422;-57
2022/12/15 10:16:36;;;;;;;38.30;14.30;;;;;;;-1.89;82.45;99655.80;103397;1289;25672;-58
2022/12/15 10:19:13;;;;;;;46.40;16.50;;;;;;;-1.95;82.41;99657.21;103160;1282;24337;-60
2022/12/15 10:21:45;;;;;;;40.70;15.90;;;;;;;-1.97;82.48;99658.88;103236;1306;25024;-55
2022/12/15 10:24:20;;;;;;;44.40;16.10;;;;;;;-1.97;82.80;99658.88;103333;1306;24408;-57
2022/12/15 10:27:15;;;;;;;43.20;16.70;;;;;;;-1.95;82.86;99665.50;103351;1285;24342;-58
2022/12/15 10:29:50;;;;;;;39.40;16.30;;;;;;;-1.93;82.86;99671.42;103367;1306;26702;-57
2022/12/15 10:32:27;;;;;;;40.30;14.90;;;;;;;-1.93;82.68;99677.50;103429;1282;22481;-57
2022/12/15 10:34:59;;;;;;;42.50;14.50;;;;;;;-1.94;82.62;99682.05;103405;1304;22490;-59
2022/12/15 10:37:31;;;;;;;33.90;13.80;;;;;;;-1.93;82.56;99684.39;103537;1294;22475;-57
2022/12/15 10:40:04;;;;;;;37.30;12.40;;;;;;;-1.93;82.54;99687.83;103351;1282;22652;-57
2022/12/15 10:42:48;;;;;;;38.50;13.90;;;;;;;-1.93;82.72;99686.41;103210;1281;22742;-57
2022/12/15 10:45:39;;;;;;;40.80;15.00;;;;;;;-1.91;82.71;99683.26;103315;1304;22503;-58
2022/12/15 10:48:20;;;;;;;39.20;13.80;;;;;;;-1.90;82.69;99678.17;103347;1282;22593;-58
2022/12/15 10:50:51;;;;;;;34.80;15.30;;;;;;;-1.89;82.60;99675.73;103248;1289;22589;-59
2022/12/15 10:53:43;;;;;;;33.50;14.40;;;;;;;-1.90;82.45;99678.25;103305;1282;22503;-59
2022/12/15 10:56:21;;;;;;;38.60;14.30;;;;;;;-1.90;82.56;99679.65;103237;1307;22587;-59
2022/12/15 10:58:53;;;;;;;37.40;13.60;;;;;;;-1.91;82.38;99678.49;103159;1306;25666;-59
2022/12/15 11:01:28;;;;;;;34.50;13.70;;;;;;;-1.92;82.32;99678.36;103117;1303;22523;-60
2022/12/15 11:03:59;;;;;;;35.90;13.80;;;;;;;-1.93;82.27;99680.39;103197;1282;24362;-60
2022/12/15 11:06:32;;;;;;;40.60;14.10;;;;;;;-1.94;82.33;99684.95;103314;1306;24329;-59
2022/12/15 11:09:25;;;;;;;41.30;16.40;;;;;;;-1.91;82.48;99691.00;103146;1306;25484;-58
2022/12/15 11:14:47;;;;;;;37.00;14.10;;;;;;;-1.89;82.44;99693.16;102991;1306;23218;-59
2022/12/15 11:17:21;;;;;;;35.80;13.20;;;;;;;-1.88;82.49;99694.71;103236;1283;22540;-58
2022/12/15 11:19:58;;;;;;;33.10;12.90;;;;;;;-1.87;82.22;99704.32;103221;1291;26654;-59
2022/12/15 11:22:37;;;;;;;36.90;13.30;;;;;;;-1.89;82.12;99715.83;103220;1283;22468;-59
2022/12/15 11:25:20;;;;;;;39.50;14.50;;;;;;;-1.89;82.27;99720.36;103229;1281;25458;-58
2022/12/15 11:27:55;;;;;;;40.80;14.20;;;;;;;-1.87;82.31;99719.48;103106;1283;24367;-58
2022/12/15 11:30:33;;;;;;;38.40;14.00;;;;;;;-1.85;82.44;99720.32;103081;1306;22951;-58
2022/12/15 11:33:06;;;;;;;39.60;14.30;;;;;;;-1.83;82.43;99726.86;103205;1288;25475;-57
2022/12/15 11:35:57;;;;;;;38.90;15.30;;;;;;;-1.81;82.38;99725.29;103172;1285;25479;-59
2022/12/15 11:38:39;;;;;;;41.10;15.90;;;;;;;-1.79;82.42;99726.12;103012;1307;22589;-59
2022/12/15 11:41:23;;;;;;;43.40;17.30;;;;;;;-1.78;82.21;99718.98;103074;1306;22519;-58
2022/12/15 11:44:18;;;;;;;41.50;16.20;;;;;;;-1.79;82.31;99716.66;103184;1306;24338;-58
2022/12/15 11:46:58;;;;;;;41.90;15.80;;;;;;;-1.80;82.14;99716.36;103100;1306;26410;-57
2022/12/15 11:50:03;;;;;;;46.20;16.60;;;;;;;-1.78;82.19;99725.17;103242;1282;24347;-58
2022/12/15 11:52:53;;;;;;;43.40;15.40;;;;;;;-1.75;82.22;99727.16;103073;1304;22592;-59
2022/12/15 11:55:35;;;;;;;41.90;16.30;;;;;;;-1.73;82.14;99733.16;103151;1307;22542;-59
2022/12/15 11:58:36;;;;;;;40.00;15.70;;;;;;;-1.72;81.87;99734.86;103150;1302;24449;-58
2022/12/15 12:01:19;;;;;;;42.00;16.40;;;;;;;-1.71;81.80;99744.23;103107;1283;22537;-59
2022/12/15 12:04:02;;;;;;;45.70;15.30;;;;;;;-1.69;81.84;99746.48;103050;1306;24459;-59
2022/12/15 12:06:41;;;;;;;46.90;17.70;;;;;;;-1.65;81.90;99748.48;102962;1274;22695;-58
2022/12/15 12:09:33;;;;;;;47.10;16.60;;;;;;;-1.62;81.90;99745.16;103136;1282;24363;-57
2022/12/15 12:12:15;;;;;;;47.40;17.20;;;;;;;-1.60;81.66;99745.21;103142;1281;22480;-56
2022/12/15 12:15:00;;;;;;;39.40;14.50;;;;;;;-1.58;81.72;99747.22;103030;1283;25839;-58
2022/12/15 12:17:42;;;;;;;41.60;15.40;;;;;;;-1.57;81.78;99752.52;103040;1289;22792;-57
2022/12/15 12:20:21;;;;;;;38.10;14.70;;;;;;;-1.56;81.58;99747.90;103377;1282;25465;-60
2022/12/15 12:23:02;;;;;;;43.20;15.60;;;;;;;-1.54;81.66;99743.33;103309;1306;25465;-59
2022/12/15 12:25:40;;;;;;;43.40;15.80;;;;;;;-1.53;81.29;99740.42;103277;1307;22547;-56
2022/12/15 12:28:17;;;;;;;36.20;13.10;;;;;;;-1.53;81.38;99738.95;103067;1288;22468;-58
2022/12/15 12:30:49;;;;;;;39.30;14.30;;;;;;;-1.55;81.05;99744.77;103138;1281;25466;-57
2022/12/15 12:33:30;;;;;;;43.90;16.50;;;;;;;-1.57;80.96;99738.52;103056;1288;23211;-58
2022/12/15 12:36:10;;;;;;;40.30;15.90;;;;;;;-1.57;81.09;99736.50;103194;1290;24438;-60
2022/12/15 12:38:46;;;;;;;40.60;14.20;;;;;;;-1.58;81.17;99727.11;103105;1306;22712;-55
2022/12/15 12:41:26;;;;;;;39.10;15.80;;;;;;;-1.57;81.06;99726.73;103134;1284;22519;-58
2022/12/15 12:44:00;;;;;;;37.40;14.60;;;;;;;-1.55;81.27;99724.90;103159;1307;22482;-58
2022/12/15 12:46:35;;;;;;;39.10;13.70;;;;;;;-1.52;81.43;99724.63;103395;1306;25558;-58
2022/12/15 12:49:14;;;;;;;41.50;15.40;;;;;;;-1.48;81.32;99723.86;103272;1286;22646;-59
2022/12/15 12:51:54;;;;;;;40.80;15.20;;;;;;;-1.42;81.45;99730.30;102136;1302;1389089;-57
2022/12/15 12:54:43;;;;;;;44.60;16.40;;;;;;;-1.37;81.40;99735.46;103149;1284;24415;-59
2022/12/15 12:57:38;;;;;;;39.10;15.30;;;;;;;-1.32;81.28;99723.27;103209;1287;22465;-59
2022/12/15 13:00:22;;;;;;;43.40;15.50;;;;;;;-1.29;81.22;99716.58;103268;1288;24321;-58
2022/12/15 13:03:17;;;;;;;41.80;16.10;;;;;;;-1.25;81.20;99706.98;103098;1306;25488;-59
2022/12/15 13:05:51;;;;;;;45.30;16.50;;;;;;;-1.22;81.10;99705.84;103164;1284;22496;-59
2022/12/15 13:08:49;;;;;;;40.80;16.10;;;;;;;-1.18;81.09;99707.34;103138;1304;22541;-57
2022/12/15 13:12:00;;;;;;;37.30;14.70;;;;;;;-1.15;80.69;99711.84;103041;1295;22472;-59
2022/12/15 13:14:44;;;;;;;40.60;15.10;;;;;;;-1.09;80.92;99714.65;103625;1287;22613;-58
2022/12/15 13:17:26;;;;;;;38.80;15.60;;;;;;;-1.04;80.94;99722.79;103126;1292;25415;-59
2022/12/15 13:20:21;;;;;;;44.30;16.10;;;;;;;-0.99;80.63;99723.35;103142;1310;22471;-57
2022/12/15 13:22:53;;;;;;;40.70;15.90;;;;;;;-0.97;80.37;99724.10;103341;1310;23071;-58
2022/12/15 13:25:38;;;;;;;43.80;16.20;;;;;;;-0.96;80.31;99724.48;103255;1286;26881;-61
2022/12/15 13:28:24;;;;;;;40.40;16.90;;;;;;;-0.96;79.97;99719.70;103029;1290;25579;-58
2022/12/15 13:31:27;;;;;;;42.90;15.80;;;;;;;-0.94;79.98;99722.73;103162;1307;22758;-58
2022/12/15 13:34:17;;;;;;;41.30;16.30;;;;;;;-0.93;79.99;99727.56;103239;1285;22538;-58
2022/12/15 13:37:02;;;;;;;42.80;16.10;;;;;;;-0.92;80.05;99735.70;103476;1297;22477;-58
2022/12/15 13:39:54;;;;;;;38.80;15.60;;;;;;;-0.92;79.84;99730.53;103119;1306;24402;-59
2022/12/15 13:42:36;;;;;;;41.60;15.90;;;;;;;-0.92;79.61;99730.61;103203;1282;25583;-56
2022/12/15 13:45:31;;;;;;;42.20;15.40;;;;;;;-0.91;79.69;99737.01;103011;1288;22467;-59
2022/12/15 13:48:08;;;;;;;44.10;15.90;;;;;;;-0.92;79.61;99740.48;103478;1306;22501;-58
2022/12/15 13:50:48;;;;;;;38.50;15.30;;;;;;;-0.94;79.64;99742.54;103064;1311;25777;-58
2022/12/15 13:53:24;;;;;;;41.50;15.50;;;;;;;-0.95;79.62;99745.04;103196;1290;22500;-55
2022/12/15 13:56:03;;;;;;;41.20;17.00;;;;;;;-0.96;79.83;99745.38;103071;1284;25644;-59
2022/12/15 13:58:42;;;;;;;38.30;16.70;;;;;;;-0.97;79.79;99750.40;103283;1306;22536;-59
2022/12/15 14:01:25;;;;;;;46.70;18.20;;;;;;;-0.98;79.80;99759.26;103204;1309;24984;-58
2022/12/15 14:04:05;;;;;;;47.00;16.50;;;;;;;-0.98;79.93;99760.98;103125;1288;22656;-57
2022/12/15 14:06:46;;;;;;;46.40;19.30;;;;;;;-0.98;79.96;99766.86;103158;1309;25450;-58
2022/12/15 14:09:24;;;;;;;43.60;17.30;;;;;;;-0.98;79.82;99767.58;103170;1281;22612;-58